Time;durP1;ratioP1;P1;durP2;ratioP2;P2;SDS_P1;SDS_P2;PMS_P1;PMS_P2;Temp;Humidity;BMP_temperature;BMP_pressure;BME280_temperature;BME280_humidity;BME280_pressure;Samples;Min_cycle;Max_cycle;Signal;HPM_P1;HPM_P2
2022/11/03 00:01:49;;;;;;;16.33;5.95;;;;;;;16.87;35.46;99750.75;5031457;28;20115;-64
2022/11/03 00:04:18;;;;;;;12.27;5.63;;;;;;;17.01;35.68;99758.75;5034055;28;20036;-64
2022/11/03 00:06:47;;;;;;;14.25;5.47;;;;;;;17.05;35.65;99753.19;5032119;28;20111;-64
2022/11/03 00:09:14;;;;;;;17.95;5.35;;;;;;;17.04;35.56;99758.00;5049921;28;20556;-64
2022/11/03 00:11:41;;;;;;;15.70;4.95;;;;;;;17.09;35.55;99765.38;5049947;28;20029;-64
2022/11/03 00:14:08;;;;;;;20.88;5.40;;;;;;;17.19;35.37;99764.78;5051026;28;20488;-64
2022/11/03 00:16:35;;;;;;;14.18;5.47;;;;;;;17.10;35.49;99762.19;5049791;28;20033;-64
2022/11/03 00:19:01;;;;;;;22.70;5.55;;;;;;;17.12;35.55;99758.97;5049578;28;20384;-64
2022/11/03 00:21:27;;;;;;;10.15;4.18;;;;;;;17.11;35.67;99763.00;5033077;28;20124;-63
2022/11/03 00:23:53;;;;;;;14.35;4.95;;;;;;;17.17;35.67;99764.34;5031086;28;20078;-65
2022/11/03 00:26:20;;;;;;;17.27;4.97;;;;;;;17.03;35.79;99764.06;5033907;28;20033;-64
2022/11/03 00:28:48;;;;;;;11.63;3.60;;;;;;;16.95;35.79;99760.19;5034156;28;20403;-65
2022/11/03 00:31:29;;;;;;;10.02;4.28;;;;;;;16.90;35.85;99764.16;5049350;28;20052;-65
2022/11/03 00:33:55;;;;;;;13.70;4.75;;;;;;;16.91;36.40;99756.50;5032113;28;20459;-64
2022/11/03 00:36:24;;;;;;;14.98;5.07;;;;;;;17.00;35.98;99762.78;5029628;28;20036;-65
2022/11/03 00:38:50;;;;;;;24.33;5.70;;;;;;;17.09;36.04;99766.22;5029642;28;20112;-64
2022/11/03 00:41:19;;;;;;;21.73;8.00;;;;;;;17.01;35.99;99755.09;5030908;28;20121;-64
2022/11/03 00:43:45;;;;;;;19.73;5.73;;;;;;;17.00;36.32;99759.97;5030991;28;20546;-65
2022/11/03 00:46:10;;;;;;;14.20;5.47;;;;;;;16.57;36.71;99762.63;5031196;28;20032;-64
2022/11/03 00:48:36;;;;;;;14.68;5.38;;;;;;;16.42;37.36;99767.97;5043611;28;20091;-64
2022/11/03 00:51:08;;;;;;;10.95;5.68;;;;;;;16.68;36.78;99763.69;5031104;28;20497;-64
2022/11/03 00:53:57;;;;;;;19.25;5.70;;;;;;;16.69;36.68;99770.97;5030757;28;20029;-64
2022/11/03 00:56:31;;;;;;;21.73;6.90;;;;;;;16.34;37.63;99760.50;5029000;28;20096;-64
2022/11/03 00:58:58;;;;;;;20.67;6.05;;;;;;;16.46;37.61;99761.56;5029415;28;20036;-64
2022/11/03 01:01:31;;;;;;;15.77;5.40;;;;;;;16.52;37.45;99760.09;5030714;28;20040;-64
2022/11/03 01:06:49;;;;;;;18.70;5.93;;;;;;;16.70;37.69;99758.50;5051251;28;20035;-64
2022/11/03 01:09:20;;;;;;;15.70;5.13;;;;;;;16.78;37.47;99764.31;5049681;28;20040;-65
2022/11/03 01:11:59;;;;;;;32.80;5.97;;;;;;;16.85;37.17;99758.81;5034185;28;20033;-65
2022/11/03 01:14:52;;;;;;;9.50;5.18;;;;;;;16.78;37.49;99761.50;5037156;28;20136;-64
2022/11/03 01:17:23;;;;;;;12.38;5.20;;;;;;;16.79;37.87;99763.13;5054039;28;20029;-64
2022/11/03 01:19:49;;;;;;;8.77;4.43;;;;;;;16.81;37.75;99757.91;5053012;28;20476;-65
2022/11/03 01:22:15;;;;;;;13.77;4.82;;;;;;;16.66;38.30;99759.59;5042417;28;20034;-64
2022/11/03 01:24:42;;;;;;;17.63;6.53;;;;;;;16.52;38.53;99760.91;5034091;28;20025;-64
2022/11/03 01:27:18;;;;;;;18.88;5.07;;;;;;;16.61;38.29;99760.72;5034056;28;20091;-64
2022/11/03 01:29:44;;;;;;;13.85;4.28;;;;;;;16.74;37.81;99766.22;5032061;28;20539;-64
2022/11/03 01:32:10;;;;;;;14.65;5.78;;;;;;;16.75;38.04;99762.22;5033760;28;20128;-64
2022/11/03 01:34:37;;;;;;;17.35;4.82;;;;;;;16.73;38.26;99764.59;5033893;28;20408;-65
2022/11/03 01:37:02;;;;;;;12.07;4.65;;;;;;;16.46;38.30;99761.56;5033923;28;20397;-64
2022/11/03 01:39:28;;;;;;;15.57;5.15;;;;;;;16.34;38.89;99763.34;5038992;28;20170;-65
2022/11/03 01:41:54;;;;;;;10.10;5.50;;;;;;;16.45;38.21;99765.59;5053719;28;20439;-65
2022/11/03 01:44:35;;;;;;;16.20;4.68;;;;;;;16.44;38.00;99755.47;5042491;28;20061;-64
2022/11/03 01:47:04;;;;;;;12.43;4.70;;;;;;;16.49;38.18;99766.47;5032422;28;20037;-65
2022/11/03 01:49:58;;;;;;;15.93;5.10;;;;;;;16.46;38.31;99762.38;5032444;28;20538;-65
2022/11/03 01:52:35;;;;;;;16.27;4.65;;;;;;;16.60;38.21;99770.38;5030566;28;20064;-65
2022/11/03 01:55:07;;;;;;;13.18;5.18;;;;;;;16.43;38.73;99763.13;5033699;28;20017;-65
2022/11/03 01:57:48;;;;;;;10.48;4.35;;;;;;;16.31;39.12;99764.06;5036245;28;20029;-64
2022/11/03 02:00:14;;;;;;;12.77;4.13;;;;;;;16.31;39.55;99766.91;5049629;28;20406;-65
2022/11/03 02:02:41;;;;;;;11.60;4.78;;;;;;;16.28;39.30;99761.97;5049931;28;20021;-65
2022/11/03 02:05:09;;;;;;;15.02;4.30;;;;;;;16.35;39.04;99762.13;5047692;28;20033;-64
2022/11/03 02:07:42;;;;;;;8.55;4.35;;;;;;;16.47;38.42;99754.75;5053295;28;20033;-65
2022/11/03 02:10:08;;;;;;;12.20;4.45;;;;;;;16.47;38.29;99766.03;5053318;28;20388;-64
2022/11/03 02:12:34;;;;;;;13.55;4.63;;;;;;;16.60;38.02;99766.75;5053140;28;20103;-66
2022/11/03 02:15:07;;;;;;;16.27;5.80;;;;;;;16.52;38.21;99760.91;5032965;28;20525;-65
2022/11/03 02:17:34;;;;;;;10.15;4.30;;;;;;;16.51;38.19;99769.75;5032963;28;20102;-66
2022/11/03 02:20:25;;;;;;;17.60;4.47;;;;;;;16.59;37.69;99768.72;5031974;28;20029;-65
2022/11/03 02:23:31;;;;;;;7.97;4.28;;;;;;;16.50;38.24;99768.94;5051330;28;20025;-65
2022/11/03 02:25:58;;;;;;;9.13;4.03;;;;;;;16.59;37.97;99768.72;5051618;28;20406;-64
2022/11/03 02:28:26;;;;;;;9.93;3.97;;;;;;;16.63;37.81;99775.28;5045878;28;20029;-65
2022/11/03 02:31:30;;;;;;;17.35;4.95;;;;;;;16.62;37.80;99770.00;5032245;28;20128;-65
2022/11/03 02:34:01;;;;;;;11.73;4.32;;;;;;;16.61;37.95;99768.38;5032962;28;20033;-64
2022/11/03 02:36:58;;;;;;;;;;;;;;;16.60;37.54;99767.53;5031992;28;20021;-64
2022/11/03 02:39:30;;;;;;;9.38;4.32;;;;;;;16.52;37.54;99771.38;5013014;28;19916;-65
2022/11/03 02:41:59;;;;;;;12.68;4.53;;;;;;;16.61;37.48;99771.19;5037485;28;20419;-65
2022/11/03 02:44:27;;;;;;;12.90;3.97;;;;;;;16.78;36.80;99773.59;5036998;28;20415;-64
2022/11/03 02:46:57;;;;;;;16.52;5.38;;;;;;;16.72;36.98;99775.09;5035376;28;20021;-65
2022/11/03 02:49:22;;;;;;;13.15;4.57;;;;;;;16.61;36.97;99774.03;5032558;28;20033;-65
2022/11/03 02:51:48;;;;;;;12.05;5.13;;;;;;;16.62;36.58;99782.09;5032307;28;20108;-64
2022/11/03 02:54:24;;;;;;;18.02;4.32;;;;;;;16.50;36.85;99774.59;5032494;28;20029;-64
2022/11/03 02:57:00;;;;;;;11.20;4.22;;;;;;;16.47;37.13;99778.16;5031061;28;20507;-65
2022/11/03 02:59:36;;;;;;;18.33;5.18;;;;;;;16.46;36.68;99778.50;5031975;28;20061;-65
2022/11/03 03:02:07;;;;;;;17.23;5.10;;;;;;;16.47;37.12;99774.50;5032219;28;20034;-64
2022/11/03 03:04:39;;;;;;;9.05;4.13;;;;;;;16.53;37.14;99779.50;5032202;28;20036;-64
2022/11/03 03:07:17;;;;;;;13.30;4.22;;;;;;;16.62;36.71;99784.13;5032043;28;20392;-64
2022/11/03 03:09:49;;;;;;;11.25;4.70;;;;;;;16.53;36.98;99787.13;5032195;28;20025;-65
2022/11/03 03:12:17;;;;;;;15.95;4.65;;;;;;;16.46;37.14;99789.81;5031984;28;20034;-66
2022/11/03 03:14:45;;;;;;;11.82;4.57;;;;;;;16.53;37.00;99784.31;5031801;28;20107;-65
2022/11/03 03:17:33;;;;;;;13.38;5.35;;;;;;;16.59;36.90;99787.66;5030687;28;20369;-65
2022/11/03 03:20:04;;;;;;;10.80;5.28;;;;;;;16.61;36.68;99786.13;5030585;28;20074;-65
2022/11/03 03:22:42;;;;;;;9.50;3.80;;;;;;;16.70;36.70;99788.72;5031692;28;20112;-65
2022/11/03 03:25:21;;;;;;;6.57;3.88;;;;;;;16.78;36.51;99778.44;5031849;28;20025;-65
2022/11/03 03:27:56;;;;;;;11.93;4.15;;;;;;;16.71;36.48;99773.41;5030726;28;20020;-68
2022/11/03 03:30:21;;;;;;;13.95;5.45;;;;;;;16.80;36.35;99771.19;5039074;28;20032;-65
2022/11/03 03:32:48;;;;;;;11.82;4.97;;;;;;;16.79;36.44;99785.72;5051730;28;20024;-65
2022/11/03 03:35:25;;;;;;;16.08;4.43;;;;;;;16.82;36.39;99760.34;5050491;28;20446;-65
2022/11/03 03:37:56;;;;;;;9.02;4.35;;;;;;;16.88;36.21;99782.66;5050201;28;20372;-65
2022/11/03 03:40:32;;;;;;;9.15;4.85;;;;;;;16.82;36.23;99776.50;5039086;28;20022;-66
2022/11/03 03:43:00;;;;;;;15.48;4.30;;;;;;;16.71;36.32;99776.25;5031487;28;20029;-65
2022/11/03 03:45:25;;;;;;;13.07;4.47;;;;;;;16.77;36.31;99776.78;5031737;28;20111;-65
2022/11/03 03:47:51;;;;;;;11.20;4.85;;;;;;;16.77;36.61;99773.94;5038518;28;20432;-64
2022/11/03 03:50:17;;;;;;;13.50;4.47;;;;;;;16.69;36.45;99772.97;5051718;28;20107;-64
2022/11/03 03:52:43;;;;;;;9.35;3.70;;;;;;;16.57;36.39;99768.28;5037040;28;20022;-65
2022/11/03 03:55:19;;;;;;;10.20;5.25;;;;;;;16.54;36.44;99774.69;5030096;28;20044;-66
2022/11/03 03:57:44;;;;;;;11.27;3.30;;;;;;;16.50;36.66;99768.13;5029956;28;20025;-65
2022/11/03 04:00:13;;;;;;;17.40;6.60;;;;;;;16.54;36.70;99769.03;5030092;28;20026;-65
2022/11/03 04:02:38;;;;;;;8.07;4.45;;;;;;;16.59;36.39;99770.72;5037675;28;20063;-65
2022/11/03 04:05:04;;;;;;;13.23;4.03;;;;;;;16.60;36.60;99772.38;5049860;28;20574;-65
2022/11/03 04:07:47;;;;;;;19.02;4.97;;;;;;;16.50;36.78;99762.47;5049754;28;20029;-65
2022/11/03 04:10:21;;;;;;;8.93;4.43;;;;;;;16.40;36.71;99773.13;5044842;28;20033;-65
2022/11/03 04:23:44;;;;;;;22.38;5.57;;;;;;;16.66;36.55;99771.72;5031324;28;20117;-65
2022/11/03 04:26:12;;;;;;;10.75;5.07;;;;;;;16.62;36.60;99773.63;5030731;28;20115;-65
2022/11/03 04:28:39;;;;;;;14.25;6.15;;;;;;;16.61;36.74;99768.38;5030980;28;20013;-65
2022/11/03 04:31:10;;;;;;;13.18;5.82;;;;;;;16.59;37.04;99765.91;5029883;28;20045;-65
2022/11/03 04:33:35;;;;;;;17.27;6.53;;;;;;;16.52;37.12;99766.56;5030945;28;20416;-65
2022/11/03 04:36:10;;;;;;;14.85;6.18;;;;;;;16.34;37.38;99760.50;5029760;28;20022;-65
2022/11/03 04:38:36;;;;;;;14.95;6.43;;;;;;;16.52;36.85;99769.38;5030906;28;20021;-65
2022/11/03 04:41:11;;;;;;;11.80;4.70;;;;;;;16.45;37.02;99768.41;5032744;28;20029;-66
2022/11/03 04:43:37;;;;;;;10.88;5.80;;;;;;;16.37;37.17;99775.91;5034814;28;20017;-65
2022/11/03 04:46:04;;;;;;;12.18;5.40;;;;;;;16.45;37.18;99771.25;5033711;28;20021;-66
2022/11/03 04:48:30;;;;;;;14.43;4.47;;;;;;;16.45;36.95;99780.50;5033426;28;20026;-65
2022/11/03 04:50:59;;;;;;;9.32;4.53;;;;;;;16.51;37.28;99786.69;5033629;28;20033;-65
2022/11/03 04:53:29;;;;;;;13.45;6.00;;;;;;;16.45;37.03;99794.63;5034707;28;20041;-65
2022/11/03 04:55:55;;;;;;;;;;;;;;;16.22;37.79;99788.84;5035028;28;20104;-64
2022/11/03 04:58:25;;;;;;;23.52;5.05;;;;;;;16.20;37.57;99791.22;5034538;28;20055;-65
2022/11/03 05:00:53;;;;;;;11.48;4.18;;;;;;;16.14;37.47;99799.94;5034698;28;20052;-65
2022/11/03 05:03:24;;;;;;;15.95;5.10;;;;;;;16.12;37.70;99809.97;5033256;28;20475;-65
2022/11/03 05:05:50;;;;;;;21.27;5.40;;;;;;;16.12;37.96;99807.16;5034624;28;20036;-65
2022/11/03 05:08:20;;;;;;;16.10;5.20;;;;;;;16.19;37.34;99798.03;5034434;28;20404;-65
2022/11/03 05:10:47;;;;;;;31.75;5.90;;;;;;;16.35;37.76;99800.81;5033065;28;20078;-65
2022/11/03 05:13:19;;;;;;;36.17;6.47;;;;;;;16.46;37.31;99801.09;5034296;28;20037;-65
2022/11/03 05:15:46;;;;;;;15.95;4.72;;;;;;;16.53;37.39;99812.53;5033139;28;20480;-65
2022/11/03 05:18:26;;;;;;;36.47;7.25;;;;;;;16.65;37.14;99803.97;5032943;28;20096;-65
2022/11/03 05:21:05;;;;;;;27.10;7.85;;;;;;;16.66;37.20;99805.63;5033089;28;20448;-67
2022/11/03 05:23:39;;;;;;;25.00;6.00;;;;;;;16.65;37.24;99803.97;5032523;28;20033;-65
2022/11/03 05:26:11;;;;;;;11.05;4.88;;;;;;;16.68;37.05;99803.22;5032870;28;20025;-65
2022/11/03 05:28:43;;;;;;;45.30;6.43;;;;;;;16.59;37.24;99811.09;5039782;28;20484;-65
2022/11/03 05:31:25;;;;;;;18.70;5.32;;;;;;;16.50;37.75;99816.09;5052685;28;20056;-66
2022/11/03 05:33:52;;;;;;;15.10;5.13;;;;;;;16.50;37.52;99816.94;5053844;28;20100;-65
2022/11/03 05:36:24;;;;;;;25.77;5.55;;;;;;;16.46;37.50;99824.47;5053921;28;20023;-65
2022/11/03 05:38:54;;;;;;;13.38;4.93;;;;;;;16.64;37.27;99818.47;5045877;28;20025;-65
2022/11/03 05:41:26;;;;;;;17.23;5.15;;;;;;;16.66;37.30;99830.19;5033940;28;20033;-66
2022/11/03 05:43:59;;;;;;;22.75;6.80;;;;;;;16.76;37.12;99837.28;5035146;28;20425;-65
2022/11/03 05:46:33;;;;;;;48.35;12.23;;;;;;;16.88;36.83;99827.88;5044073;28;20111;-65
2022/11/03 05:49:01;;;;;;;32.92;11.43;;;;;;;16.95;37.06;99833.66;5037207;28;20021;-65
2022/11/03 05:51:31;;;;;;;48.38;11.10;;;;;;;17.07;37.04;99852.53;5039955;28;20025;-64
2022/11/03 05:54:01;;;;;;;78.57;11.15;;;;;;;17.14;37.00;99852.69;5034395;28;20025;-64
2022/11/03 05:56:26;;;;;;;32.87;8.40;;;;;;;17.15;37.13;99859.16;5031858;28;20120;-65
2022/11/03 05:58:55;;;;;;;25.30;6.78;;;;;;;17.07;36.87;99861.81;5030341;28;20074;-66
2022/11/03 06:01:34;;;;;;;23.52;5.75;;;;;;;17.10;36.95;99855.44;5031602;28;20403;-63
2022/11/03 06:04:13;;;;;;;25.40;5.65;;;;;;;16.95;37.44;99850.59;5046517;28;20033;-65
2022/11/03 06:06:38;;;;;;;35.35;7.60;;;;;;;16.91;37.48;99861.84;5030864;28;20033;-63
2022/11/03 06:09:19;;;;;;;18.35;5.88;;;;;;;16.85;37.70;99860.50;5031041;28;20472;-64
2022/11/03 06:11:45;;;;;;;23.02;5.40;;;;;;;16.89;37.35;99864.19;5031526;28;20022;-65
2022/11/03 06:14:21;;;;;;;27.42;5.55;;;;;;;16.88;37.69;99867.41;5033287;28;20032;-64
2022/11/03 06:16:53;;;;;;;13.10;4.00;;;;;;;16.88;37.80;99865.41;5031959;28;20116;-64
2022/11/03 06:19:31;;;;;;;17.20;4.05;;;;;;;16.78;38.09;99872.44;5032953;28;20021;-63
2022/11/03 06:22:14;;;;;;;13.27;4.25;;;;;;;16.80;38.14;99883.38;5037246;28;20041;-64
2022/11/03 06:24:40;;;;;;;11.38;4.57;;;;;;;16.86;38.08;99875.44;5041590;28;20029;-63
2022/11/03 06:27:34;;;;;;;13.48;4.93;;;;;;;17.16;37.80;99880.56;5031875;28;20037;-64
2022/11/03 06:30:20;;;;;;;26.98;3.97;;;;;;;17.14;38.28;99875.31;5047055;28;20473;-64
2022/11/03 06:32:46;;;;;;;20.08;5.53;;;;;;;16.98;38.39;99878.16;5047293;28;20039;-64
2022/11/03 06:35:12;;;;;;;16.83;3.72;;;;;;;16.95;38.67;99879.69;5032000;28;20026;-64
2022/11/03 06:37:38;;;;;;;19.45;4.25;;;;;;;17.12;38.78;99888.97;5049688;28;20032;-64
2022/11/03 06:40:09;;;;;;;27.40;5.20;;;;;;;17.30;38.65;99889.34;5039016;28;20477;-65
2022/11/03 06:42:38;;;;;;;11.13;4.85;;;;;;;17.34;38.22;99886.63;5042487;28;20060;-63
2022/11/03 06:45:20;;;;;;;15.93;4.90;;;;;;;17.42;37.85;99896.06;5036597;28;20040;-64
2022/11/03 06:47:46;;;;;;;15.05;5.10;;;;;;;17.75;37.68;99895.56;5051408;28;20025;-64
2022/11/03 06:50:38;;;;;;;9.77;4.15;;;;;;;18.13;36.91;99898.69;5036873;28;20025;-65
2022/11/03 06:53:03;;;;;;;19.55;4.63;;;;;;;18.38;36.15;99898.31;5043098;28;20048;-66
2022/11/03 06:55:31;;;;;;;42.50;11.32;;;;;;;18.47;36.14;99900.91;5037463;28;20056;-65
2022/11/03 06:58:23;;;;;;;44.33;18.63;;;;;;;18.54;35.32;99900.22;5031279;28;20029;-67
2022/11/03 07:00:48;;;;;;;22.77;7.80;;;;;;;18.52;35.01;99898.59;5033627;28;20091;-67
2022/11/03 07:03:14;;;;;;;18.27;5.82;;;;;;;18.78;34.75;99901.81;5030954;28;20041;-67
2022/11/03 07:05:40;;;;;;;18.35;5.65;;;;;;;18.82;34.39;99901.88;5032110;28;20100;-69
2022/11/03 07:08:21;;;;;;;15.27;5.75;;;;;;;18.93;34.47;99897.19;5043530;28;20033;-68
2022/11/03 07:10:48;;;;;;;17.23;6.18;;;;;;;19.14;34.30;99896.69;5034410;28;20028;-69
2022/11/03 07:13:22;;;;;;;16.55;6.97;;;;;;;19.10;33.99;99910.03;5044259;28;20095;-69
2022/11/03 07:15:48;;;;;;;15.60;6.20;;;;;;;19.00;33.91;99900.13;5050047;28;20033;-68
2022/11/03 07:18:25;;;;;;;21.80;6.45;;;;;;;18.97;34.29;99908.56;5037017;28;20029;-69
2022/11/03 07:20:52;;;;;;;17.92;7.13;;;;;;;18.90;34.56;99898.75;5042059;28;20539;-70
2022/11/03 07:23:23;;;;;;;16.15;6.30;;;;;;;19.18;34.45;99903.22;5045518;28;20458;-67
2022/11/03 07:25:55;;;;;;;22.58;8.35;;;;;;;19.03;34.90;99896.56;5036751;28;20400;-67
2022/11/03 07:28:25;;;;;;;53.70;9.88;;;;;;;19.19;34.50;99890.72;5037539;28;20022;-66
2022/11/03 07:30:51;;;;;;;22.95;7.97;;;;;;;19.34;34.25;99899.41;5037099;28;20116;-68
2022/11/03 07:33:23;;;;;;;55.13;16.13;;;;;;;19.38;34.68;99891.75;5042682;28;20186;-68
2022/11/03 07:35:50;;;;;;;61.70;9.75;;;;;;;19.08;35.13;99890.53;5035254;28;20115;-74
2022/11/03 07:38:21;;;;;;;20.90;7.45;;;;;;;19.39;34.58;99901.91;5042979;28;20021;-72
2022/11/03 07:40:47;;;;;;;18.92;7.53;;;;;;;19.42;34.63;99911.66;5031093;28;20040;-71
2022/11/03 07:43:15;;;;;;;15.38;5.60;;;;;;;19.59;34.84;99899.72;5032691;28;20061;-72
2022/11/03 07:45:48;;;;;;;17.75;6.80;;;;;;;19.86;34.58;99904.50;5034859;28;20494;-70
2022/11/03 07:48:32;;;;;;;18.00;8.05;;;;;;;20.22;34.24;99907.72;5034999;28;20098;-68
2022/11/03 07:51:13;;;;;;;21.63;7.57;;;;;;;20.20;34.04;99901.63;5047422;28;20056;-70
2022/11/03 07:53:41;;;;;;;18.92;7.05;;;;;;;20.23;33.66;99897.19;5036632;28;20037;-70
2022/11/03 07:56:32;;;;;;;17.88;6.18;;;;;;;20.44;33.90;99888.06;5029855;28;20033;-70
2022/11/03 07:59:10;;;;;;;21.70;8.50;;;;;;;20.45;34.18;99895.38;5043169;28;20025;-70
2022/11/03 08:01:44;;;;;;;19.25;7.15;;;;;;;20.41;34.74;99894.53;5039450;28;20116;-70
2022/11/03 08:04:15;;;;;;;16.67;6.68;;;;;;;20.31;35.12;99888.34;5030371;28;20098;-70
2022/11/03 08:06:41;;;;;;;16.23;6.10;;;;;;;20.32;34.92;99883.47;5030250;28;20476;-70
2022/11/03 08:09:07;;;;;;;22.88;7.35;;;;;;;20.32;35.04;99883.47;5039098;28;20036;-70
2022/11/03 08:11:32;;;;;;;23.95;7.50;;;;;;;20.60;34.85;99879.25;5029724;28;20037;-71
2022/11/03 08:13:57;;;;;;;30.98;7.55;;;;;;;20.69;34.69;99876.06;5030789;28;20458;-71
2022/11/03 08:16:23;;;;;;;26.88;9.98;;;;;;;20.95;34.35;99886.44;5042276;28;20044;-71
2022/11/03 08:18:48;;;;;;;16.33;6.55;;;;;;;21.31;33.72;99886.66;5039355;28;20053;-70
2022/11/03 08:21:14;;;;;;;21.20;8.10;;;;;;;21.53;33.26;99883.06;5038033;28;20041;-72
2022/11/03 08:23:39;;;;;;;22.42;8.50;;;;;;;21.44;33.32;99884.25;5046433;28;20025;-73
2022/11/03 08:26:05;;;;;;;21.10;9.60;;;;;;;21.35;33.48;99880.16;5049330;28;20494;-73
2022/11/03 08:28:32;;;;;;;20.20;7.28;;;;;;;21.52;33.22;99879.41;5036586;28;20021;-72
2022/11/03 08:31:00;;;;;;;24.85;8.05;;;;;;;21.57;33.25;99870.50;5048272;28;20106;-74
2022/11/03 08:33:29;;;;;;;29.67;8.88;;;;;;;21.68;33.29;99881.94;5038893;28;20037;-72
2022/11/03 08:35:54;;;;;;;20.08;7.22;;;;;;;21.87;32.92;99879.97;5044235;28;20033;-71
2022/11/03 08:38:19;;;;;;;17.95;9.63;;;;;;;21.99;32.59;99881.59;5051003;28;20028;-73
2022/11/03 08:40:45;;;;;;;25.20;10.93;;;;;;;22.20;32.31;99883.66;5044005;28;20037;-72
2022/11/03 08:43:10;;;;;;;24.83;10.70;;;;;;;22.38;32.10;99877.97;5046535;28;20055;-71
2022/11/03 08:45:36;;;;;;;21.38;7.93;;;;;;;22.33;32.64;99881.25;5031038;28;20029;-71
2022/11/03 08:48:02;;;;;;;20.52;8.20;;;;;;;22.37;32.23;99878.41;5031008;28;20018;-70
2022/11/03 08:50:27;;;;;;;23.23;7.43;;;;;;;22.40;31.96;99877.59;5042411;28;20033;-70
2022/11/03 08:52:53;;;;;;;21.75;8.68;;;;;;;22.38;32.29;99882.88;5051123;28;20032;-72
2022/11/03 08:55:18;;;;;;;26.63;9.50;;;;;;;22.48;32.32;99876.41;5051123;28;20104;-73
2022/11/03 08:57:44;;;;;;;25.63;9.45;;;;;;;22.80;32.17;99881.25;5051083;28;20047;-73
2022/11/03 09:00:10;;;;;;;39.97;9.75;;;;;;;22.86;32.13;99885.34;5051491;28;20083;-74
2022/11/03 09:02:35;;;;;;;20.08;9.13;;;;;;;22.80;31.45;99878.41;5049835;28;20483;-69
2022/11/03 09:05:01;;;;;;;16.73;8.15;;;;;;;22.70;31.81;99880.06;5037567;28;20034;-70
2022/11/03 09:07:26;;;;;;;17.85;7.60;;;;;;;22.35;32.32;99878.00;5031337;28;20030;-70
2022/11/03 09:09:52;;;;;;;23.48;7.82;;;;;;;22.55;31.98;99881.28;5035442;28;20078;-72
2022/11/03 09:12:18;;;;;;;29.05;10.30;;;;;;;22.65;31.58;99873.94;5036202;28;20033;-71
2022/11/03 09:14:43;;;;;;;53.90;20.95;;;;;;;22.67;32.11;99874.34;5039710;28;20021;-72
2022/11/03 09:17:09;;;;;;;44.75;18.50;;;;;;;22.67;30.74;99865.78;5030664;28;20067;-71
2022/11/03 09:19:34;;;;;;;53.97;24.00;;;;;;;22.62;30.89;99869.06;5042380;28;20028;-72
2022/11/03 09:22:00;;;;;;;26.35;13.40;;;;;;;22.68;30.70;99864.56;5037213;28;20095;-71
2022/11/03 09:24:26;;;;;;;33.50;12.82;;;;;;;22.72;30.86;99868.25;5035075;28;20451;-72
2022/11/03 09:26:52;;;;;;;22.98;7.43;;;;;;;22.43;30.59;99869.06;5045007;28;20079;-69
2022/11/03 09:29:18;;;;;;;28.40;8.60;;;;;;;22.37;30.55;99859.25;5040765;28;20071;-71
2022/11/03 09:31:43;;;;;;;24.13;7.18;;;;;;;22.50;31.03;99856.88;5054851;28;20122;-70
2022/11/03 09:34:08;;;;;;;30.83;8.40;;;;;;;22.48;30.56;99856.47;5041344;28;20033;-71
2022/11/03 09:36:34;;;;;;;21.60;8.38;;;;;;;22.59;30.71;99850.75;5046567;28;20036;-71
2022/11/03 09:38:59;;;;;;;25.80;7.70;;;;;;;22.70;29.76;99860.09;5054539;28;20028;-71
2022/11/03 09:41:25;;;;;;;29.70;7.65;;;;;;;22.69;29.79;99851.97;5050915;28;20025;-71
2022/11/03 09:43:51;;;;;;;26.55;11.38;;;;;;;22.83;29.63;99857.66;5033339;28;20026;-70
2022/11/03 09:46:18;;;;;;;22.23;8.00;;;;;;;22.65;30.22;99851.97;5034259;28;20409;-70
2022/11/03 09:48:43;;;;;;;17.30;7.43;;;;;;;22.79;30.24;99847.47;5032795;28;20030;-71
2022/11/03 09:51:19;;;;;;;23.10;8.75;;;;;;;23.05;29.80;99845.38;5034236;28;20024;-71
2022/11/03 09:53:45;;;;;;;20.67;8.18;;;;;;;23.08;29.66;99844.53;5033100;28;20501;-72
2022/11/03 09:56:11;;;;;;;25.27;8.95;;;;;;;23.28;29.06;99842.03;5042859;28;20029;-71
2022/11/03 09:58:36;;;;;;;21.98;8.10;;;;;;;23.08;29.24;99836.81;5050804;28;20095;-71
2022/11/03 10:01:03;;;;;;;27.23;8.43;;;;;;;22.98;29.59;99835.59;5034112;28;20104;-71
2022/11/03 10:03:29;;;;;;;26.63;8.65;;;;;;;22.88;29.95;99830.75;5043904;28;20067;-71
2022/11/03 10:05:55;;;;;;;25.85;9.02;;;;;;;23.09;29.70;99829.88;5052935;28;20500;-73
2022/11/03 10:08:26;;;;;;;18.63;8.20;;;;;;;23.04;29.72;99826.63;5053937;28;20438;-71
2022/11/03 10:10:53;;;;;;;18.90;6.35;;;;;;;23.04;29.26;99833.13;5041767;28;20493;-71
2022/11/03 10:13:36;;;;;;;23.65;7.63;;;;;;;23.16;29.02;99822.50;5035475;28;20021;-71
2022/11/03 10:16:05;;;;;;;14.80;7.88;;;;;;;23.00;29.23;99823.78;5038172;28;20021;-71
2022/11/03 10:18:32;;;;;;;17.58;8.27;;;;;;;23.01;29.64;99816.84;5032917;28;20455;-70
2022/11/03 10:21:03;;;;;;;23.13;9.27;;;;;;;23.12;29.72;99814.78;5050193;28;20024;-71
2022/11/03 10:23:29;;;;;;;20.50;8.00;;;;;;;23.19;29.30;99804.59;5039633;28;20059;-71
2022/11/03 10:26:07;;;;;;;21.63;8.05;;;;;;;23.26;28.89;99798.81;5044461;28;20017;-72
2022/11/03 10:28:33;;;;;;;19.80;6.95;;;;;;;23.33;28.82;99803.72;5034410;28;20077;-73
2022/11/03 10:31:07;;;;;;;20.10;7.13;;;;;;;23.09;29.05;99794.81;5037129;28;20038;-73
2022/11/03 10:33:53;;;;;;;26.48;8.75;;;;;;;23.24;29.17;99795.56;5039756;28;20039;-73
2022/11/03 10:36:19;;;;;;;22.98;8.38;;;;;;;23.37;28.67;99793.13;5044226;28;20487;-72
2022/11/03 10:38:46;;;;;;;14.77;6.45;;;;;;;23.53;28.24;99790.56;5043689;28;20116;-71
2022/11/03 10:41:18;;;;;;;20.92;8.50;;;;;;;23.44;28.26;99780.84;5033474;28;20029;-72
2022/11/03 10:44:11;;;;;;;22.20;6.63;;;;;;;23.49;28.54;99777.53;5033176;28;20025;-72
2022/11/03 10:46:38;;;;;;;21.20;7.45;;;;;;;23.64;28.26;99778.28;5046789;28;20127;-72
2022/11/03 10:49:15;;;;;;;12.18;6.45;;;;;;;23.95;28.06;99776.41;5035196;28;20021;-71
2022/11/03 10:51:41;;;;;;;22.48;7.32;;;;;;;23.48;28.18;99775.91;5035365;28;20029;-72
2022/11/03 10:54:13;;;;;;;23.65;8.38;;;;;;;23.64;27.81;99776.22;5038285;28;20096;-74
2022/11/03 10:56:40;;;;;;;21.52;6.43;;;;;;;23.73;27.85;99766.38;5051960;28;20119;-72
2022/11/03 10:59:08;;;;;;;23.17;7.40;;;;;;;23.80;27.74;99760.63;5050033;28;20464;-73
2022/11/03 11:01:34;;;;;;;15.27;7.25;;;;;;;24.05;27.97;99762.50;5052746;28;20029;-75
2022/11/03 11:03:59;;;;;;;26.08;8.25;;;;;;;24.02;27.26;99758.41;5039205;28;20036;-71
2022/11/03 11:06:28;;;;;;;19.13;7.35;;;;;;;23.98;27.50;99754.78;5030647;28;20027;-71
2022/11/03 11:09:00;;;;;;;29.15;7.65;;;;;;;23.97;27.30;99744.59;5032624;28;20099;-71
2022/11/03 11:11:26;;;;;;;17.60;5.80;;;;;;;24.06;27.52;99747.00;5041805;28;20032;-71
2022/11/03 11:14:26;;;;;;;23.77;7.18;;;;;;;24.24;26.85;99733.34;5050961;28;20025;-71
2022/11/03 11:16:59;;;;;;;32.97;6.80;;;;;;;24.19;26.52;99728.09;5038271;28;20021;-71
2022/11/03 11:19:26;;;;;;;20.48;6.65;;;;;;;24.05;26.79;99728.22;5037875;28;20115;-72
2022/11/03 11:21:52;;;;;;;23.15;6.95;;;;;;;24.07;27.54;99720.88;5032038;28;20118;-73
2022/11/03 11:24:42;;;;;;;22.30;6.88;;;;;;;24.08;27.39;99721.66;5035576;28;20099;-72
2022/11/03 11:27:35;;;;;;;25.00;9.13;;;;;;;24.07;27.76;99723.72;5041237;28;20162;-72
2022/11/03 11:30:03;;;;;;;18.33;7.45;;;;;;;23.87;27.47;99716.94;5032322;28;20013;-72
2022/11/03 11:32:38;;;;;;;14.15;6.30;;;;;;;23.84;27.67;99718.56;5034231;28;20056;-72
2022/11/03 11:35:08;;;;;;;19.98;7.32;;;;;;;23.97;27.36;99705.41;5041320;28;20025;-72
2022/11/03 11:37:35;;;;;;;17.50;7.40;;;;;;;24.05;27.16;99702.53;5038172;28;20013;-72
2022/11/03 11:40:10;;;;;;;18.10;6.65;;;;;;;24.06;27.11;99704.13;5050133;28;20005;-72
2022/11/03 11:43:01;;;;;;;20.85;7.10;;;;;;;23.90;27.45;99694.06;5039978;28;20041;-72
2022/11/03 11:46:03;;;;;;;15.02;6.38;;;;;;;23.90;27.16;99696.09;5032043;28;20029;-72
2022/11/03 11:48:29;;;;;;;27.92;9.32;;;;;;;23.77;28.00;99696.59;5034581;28;20033;-70
2022/11/03 11:50:57;;;;;;;19.95;6.85;;;;;;;23.72;27.62;99688.50;5040443;28;20079;-68
2022/11/03 11:53:24;;;;;;;20.45;6.85;;;;;;;23.54;28.01;99686.56;5035535;28;20047;-70
2022/11/03 11:55:58;;;;;;;26.55;9.23;;;;;;;23.68;27.76;99687.69;5034550;28;20174;-71
2022/11/03 11:58:45;;;;;;;16.63;6.93;;;;;;;23.61;27.66;99679.22;5032776;28;20033;-71